Time;durP1;ratioP1;P1;durP2;ratioP2;P2;SDS_P1;SDS_P2;PMS_P1;PMS_P2;Temp;Humidity;BMP_temperature;BMP_pressure;BME280_temperature;BME280_humidity;BME280_pressure;Samples;Min_cycle;Max_cycle;Signal;HPM_P1;HPM_P2
2023/09/24 00:00:20;;;;;;;7.40;5.68;;;;;;;15.81;70.34;100461.84;4895878;29;20139;-77
2023/09/24 00:02:48;;;;;;;7.70;5.65;;;;;;;15.79;70.79;100464.59;4896086;29;20524;-77
2023/09/24 00:05:16;;;;;;;9.55;6.05;;;;;;;15.80;70.90;100465.44;4896070;29;20067;-77
2023/09/24 00:07:43;;;;;;;7.05;5.95;;;;;;;15.80;71.20;100468.09;4896017;29;20052;-76
2023/09/24 00:10:10;;;;;;;6.72;5.43;;;;;;;15.80;71.23;100468.94;4895823;29;20079;-77
2023/09/24 00:12:38;;;;;;;9.32;5.88;;;;;;;15.82;71.55;100468.84;4896137;29;20052;-77
2023/09/24 00:15:05;;;;;;;7.50;5.97;;;;;;;15.84;71.40;100470.44;4895960;29;20471;-77
2023/09/24 00:17:32;;;;;;;9.02;5.90;;;;;;;15.86;71.24;100465.84;4896100;29;20457;-77
2023/09/24 00:19:58;;;;;;;8.48;6.30;;;;;;;15.88;71.18;100471.94;4895852;29;20072;-76
2023/09/24 00:22:25;;;;;;;8.75;5.55;;;;;;;15.90;71.05;100477.13;4896047;29;20056;-76
2023/09/24 00:24:53;;;;;;;7.18;5.57;;;;;;;15.90;71.00;100479.78;4895837;29;20433;-76
2023/09/24 00:27:20;;;;;;;7.15;5.63;;;;;;;15.89;70.88;100473.63;4896237;29;20482;-76
2023/09/24 00:29:46;;;;;;;6.55;5.35;;;;;;;15.89;70.99;100478.09;4895081;29;20060;-76
2023/09/24 00:32:13;;;;;;;13.73;6.22;;;;;;;15.90;70.99;100490.41;4895982;29;20056;-77
2023/09/24 00:34:40;;;;;;;8.05;6.82;;;;;;;15.89;70.97;100494.03;4895763;29;20048;-76
2023/09/24 00:37:06;;;;;;;8.60;6.47;;;;;;;15.89;71.07;100496.69;4894902;29;20045;-76
2023/09/24 00:39:33;;;;;;;11.23;6.60;;;;;;;15.90;71.47;100498.38;4895778;29;20083;-76
2023/09/24 00:42:00;;;;;;;10.00;6.10;;;;;;;15.90;71.23;100496.56;4894585;29;20053;-76
2023/09/24 00:44:26;;;;;;;8.25;6.25;;;;;;;15.94;71.63;100494.59;4895432;29;20055;-76
2023/09/24 00:46:55;;;;;;;8.27;6.45;;;;;;;15.95;71.55;100504.25;4894816;29;20091;-76
2023/09/24 00:49:22;;;;;;;8.95;6.38;;;;;;;15.98;71.38;100503.19;4895715;29;20052;-76
2023/09/24 00:51:49;;;;;;;8.50;6.82;;;;;;;15.98;71.41;100500.53;4899413;29;20084;-76
2023/09/24 00:54:17;;;;;;;8.55;6.60;;;;;;;15.99;71.19;100499.56;4899293;29;20051;-76
2023/09/24 00:56:44;;;;;;;10.13;7.55;;;;;;;15.98;70.83;100504.06;4899573;29;20100;-76
2023/09/24 00:59:10;;;;;;;9.15;7.47;;;;;;;15.97;70.83;100501.50;4899472;29;20052;-77
2023/09/24 01:01:38;;;;;;;12.30;7.35;;;;;;;15.95;70.93;100498.94;4899236;29;20064;-77
2023/09/24 01:04:05;;;;;;;10.20;6.90;;;;;;;15.94;70.98;100497.25;4899308;29;20053;-76
2023/09/24 01:06:34;;;;;;;12.80;7.13;;;;;;;15.93;71.07;100503.50;4899337;29;20049;-76
2023/09/24 01:09:03;;;;;;;7.93;7.03;;;;;;;15.91;70.95;100502.72;4899290;29;20109;-76
2023/09/24 01:11:31;;;;;;;8.05;6.80;;;;;;;15.90;70.96;100506.34;4898769;29;20052;-76
2023/09/24 01:13:58;;;;;;;11.98;7.65;;;;;;;15.88;70.77;100500.28;4899276;29;20088;-76
2023/09/24 01:16:24;;;;;;;12.05;7.65;;;;;;;15.86;70.68;100499.53;4898175;29;20056;-75
2023/09/24 01:18:53;;;;;;;10.20;7.63;;;;;;;15.83;70.42;100510.34;4898621;29;20049;-76
2023/09/24 01:21:20;;;;;;;8.18;7.00;;;;;;;15.79;70.43;100499.09;4897937;29;20104;-78
2023/09/24 01:23:48;;;;;;;9.65;7.18;;;;;;;15.75;70.61;100503.75;4898836;29;20053;-77
2023/09/24 01:26:18;;;;;;;9.43;7.28;;;;;;;15.72;70.53;100506.63;4899001;29;20080;-77
2023/09/24 01:28:44;;;;;;;9.43;6.93;;;;;;;15.68;70.45;100505.13;4898725;29;20426;-76
2023/09/24 01:31:11;;;;;;;9.63;7.70;;;;;;;15.66;70.53;100508.84;4899077;29;20092;-76
2023/09/24 01:33:41;;;;;;;9.75;7.63;;;;;;;15.62;70.53;100508.19;4897413;29;20057;-77
2023/09/24 01:36:10;;;;;;;10.02;7.50;;;;;;;15.57;70.59;100510.28;4897695;29;20076;-76
2023/09/24 01:38:40;;;;;;;8.68;6.93;;;;;;;15.54;70.66;100516.66;4898594;29;20160;-76
2023/09/24 01:41:10;;;;;;;9.65;7.13;;;;;;;15.48;70.71;100517.91;4898303;29;20065;-77
2023/09/24 01:43:39;;;;;;;11.20;7.70;;;;;;;15.48;70.82;100523.22;4898625;29;20060;-76
2023/09/24 01:46:07;;;;;;;10.52;8.18;;;;;;;15.44;70.75;100526.19;4898674;29;20464;-76
2023/09/24 01:48:35;;;;;;;13.20;7.72;;;;;;;15.41;70.78;100521.94;4898354;29;20480;-76
2023/09/24 01:51:06;;;;;;;11.35;7.65;;;;;;;15.36;70.73;100524.88;4881642;29;20477;-77
2023/09/24 01:53:33;;;;;;;10.93;7.97;;;;;;;15.35;70.74;100524.97;4898217;29;20135;-76
2023/09/24 01:56:04;;;;;;;10.93;7.88;;;;;;;15.32;70.98;100523.38;4898741;29;20055;-76
2023/09/24 01:58:31;;;;;;;10.82;7.32;;;;;;;15.30;71.06;100529.72;4897363;29;20048;-77
2023/09/24 02:00:58;;;;;;;8.55;6.93;;;;;;;15.28;70.95;100535.13;4897325;29;20585;-77
2023/09/24 02:03:26;;;;;;;10.07;7.80;;;;;;;15.26;71.04;100536.16;4897884;29;20061;-76
2023/09/24 02:05:53;;;;;;;9.10;7.53;;;;;;;15.23;70.93;100530.13;4898555;29;20056;-76
2023/09/24 02:08:20;;;;;;;9.65;7.65;;;;;;;15.21;71.03;100539.97;4898282;29;20057;-76
2023/09/24 02:10:47;;;;;;;9.48;7.50;;;;;;;15.18;70.97;100540.16;4898138;29;20127;-76
2023/09/24 02:13:14;;;;;;;11.75;7.50;;;;;;;15.16;71.07;100533.25;4898203;29;20048;-76
2023/09/24 02:15:45;;;;;;;12.02;8.40;;;;;;;15.14;71.07;100541.31;4898216;29;20101;-77
2023/09/24 02:18:12;;;;;;;10.05;7.68;;;;;;;15.11;70.97;100539.69;4898128;29;20056;-76
2023/09/24 02:20:46;;;;;;;14.90;8.95;;;;;;;15.07;71.10;100550.63;4897766;29;20056;-76
2023/09/24 02:23:13;;;;;;;9.80;8.50;;;;;;;15.05;71.15;100542.75;4898306;29;20071;-76
2023/09/24 02:25:44;;;;;;;14.93;9.20;;;;;;;15.04;71.11;100546.38;4898159;29;20052;-76
2023/09/24 02:28:12;;;;;;;9.80;8.43;;;;;;;15.02;71.25;100547.41;4898010;29;20056;-76
2023/09/24 02:30:40;;;;;;;10.55;9.02;;;;;;;15.00;71.34;100546.63;4897711;29;20072;-76
2023/09/24 02:33:07;;;;;;;10.77;9.02;;;;;;;14.98;71.25;100552.03;4897856;29;20071;-76
2023/09/24 02:35:34;;;;;;;13.25;9.07;;;;;;;14.96;71.26;100551.28;4897961;29;20049;-76
2023/09/24 02:38:02;;;;;;;13.90;9.23;;;;;;;14.94;71.51;100556.69;4897878;29;20044;-76
2023/09/24 02:40:28;;;;;;;11.32;9.10;;;;;;;14.93;71.61;100565.59;4897708;29;20052;-77
2023/09/24 02:43:03;;;;;;;12.73;9.75;;;;;;;14.90;71.55;100565.78;4897402;29;20516;-76
2023/09/24 02:45:30;;;;;;;14.82;9.32;;;;;;;14.92;71.47;100557.72;4897832;29;20084;-76
2023/09/24 02:47:57;;;;;;;13.15;9.32;;;;;;;14.90;71.37;100562.25;4896718;29;20112;-76
2023/09/24 02:50:27;;;;;;;12.40;8.65;;;;;;;14.88;71.37;100557.06;4896404;29;20391;-76
2023/09/24 02:52:56;;;;;;;10.82;8.63;;;;;;;14.88;71.28;100556.22;4890478;29;20095;-76
2023/09/24 02:55:24;;;;;;;13.60;8.90;;;;;;;14.85;71.29;100551.97;4896059;29;20049;-76
2023/09/24 02:57:51;;;;;;;12.15;8.48;;;;;;;14.83;71.54;100553.84;4897710;29;20063;-76
2023/09/24 03:00:20;;;;;;;10.35;8.38;;;;;;;14.82;71.42;100552.16;4897407;29;20048;-76
2023/09/24 03:02:48;;;;;;;9.77;8.48;;;;;;;14.80;71.44;100548.75;4896904;29;20201;-76
2023/09/24 03:05:20;;;;;;;15.68;8.55;;;;;;;14.78;71.27;100554.16;4897152;29;20063;-76
2023/09/24 03:07:50;;;;;;;9.93;7.53;;;;;;;14.75;71.56;100554.28;4897523;29;20059;-77
2023/09/24 03:10:20;;;;;;;13.07;8.00;;;;;;;14.75;71.35;100556.94;4896120;29;20100;-76
2023/09/24 03:12:48;;;;;;;10.52;7.43;;;;;;;14.73;71.48;100558.84;4895338;29;20048;-76
2023/09/24 03:15:15;;;;;;;13.18;7.55;;;;;;;14.71;71.55;100563.38;4897003;29;20104;-76
2023/09/24 03:17:43;;;;;;;12.45;7.78;;;;;;;14.69;71.50;100562.63;4897194;29;20057;-77
2023/09/24 03:20:19;;;;;;;9.38;7.47;;;;;;;14.69;71.50;100557.34;4897365;29;20057;-76
2023/09/24 03:22:51;;;;;;;9.10;7.82;;;;;;;14.66;71.50;100563.66;4896488;29;20052;-76
2023/09/24 03:25:19;;;;;;;9.43;7.38;;;;;;;14.67;71.43;100570.69;4896947;29;20095;-77
2023/09/24 03:27:50;;;;;;;10.00;7.00;;;;;;;14.65;71.37;100572.56;4897059;29;20155;-76
2023/09/24 03:30:17;;;;;;;9.68;8.10;;;;;;;14.65;71.25;100577.03;4895774;29;20068;-76
2023/09/24 03:32:48;;;;;;;10.85;8.38;;;;;;;14.63;71.42;100582.41;4896500;29;20429;-76
2023/09/24 03:35:19;;;;;;;10.85;7.88;;;;;;;14.62;71.17;100579.84;4896259;29;20140;-76
2023/09/24 03:37:46;;;;;;;11.75;7.55;;;;;;;14.62;71.15;100582.50;4895423;29;20060;-76
2023/09/24 03:40:16;;;;;;;9.65;6.82;;;;;;;14.59;71.17;100578.25;4896729;29;20056;-77
2023/09/24 03:42:42;;;;;;;10.50;6.55;;;;;;;14.58;71.16;100584.50;4896418;29;20447;-76
2023/09/24 03:45:10;;;;;;;11.60;6.82;;;;;;;14.57;71.29;100585.41;4896155;29;20124;-76
2023/09/24 03:47:38;;;;;;;8.90;6.50;;;;;;;14.55;71.29;100587.31;4895680;29;20064;-76
2023/09/24 03:50:06;;;;;;;14.60;5.88;;;;;;;14.54;71.24;100590.91;4896701;29;20139;-77
2023/09/24 03:52:33;;;;;;;10.13;5.78;;;;;;;14.52;71.34;100595.44;4896546;29;20104;-76
2023/09/24 03:55:00;;;;;;;9.73;6.10;;;;;;;14.51;71.65;100599.91;4895571;29;20296;-77
2023/09/24 03:57:30;;;;;;;9.70;5.50;;;;;;;14.51;71.60;100601.69;4895216;29;20406;-75
2023/09/24 03:59:57;;;;;;;7.65;5.93;;;;;;;14.50;71.56;100603.47;4896333;29;20052;-75
2023/09/24 04:02:26;;;;;;;10.05;6.38;;;;;;;14.51;71.74;100607.84;4895081;29;20060;-76
2023/09/24 04:04:53;;;;;;;8.70;6.55;;;;;;;14.51;71.64;100607.84;4895788;29;20100;-76
2023/09/24 04:07:20;;;;;;;12.18;6.65;;;;;;;14.50;71.50;100614.06;4896195;29;20091;-76
2023/09/24 04:09:50;;;;;;;10.93;7.60;;;;;;;14.50;71.57;100614.06;4896272;29;20628;-76
2023/09/24 04:12:16;;;;;;;11.63;8.10;;;;;;;14.49;71.45;100620.31;4896074;29;20091;-75
2023/09/24 04:14:43;;;;;;;13.02;6.97;;;;;;;14.48;71.50;100623.91;4895295;29;20064;-76
2023/09/24 04:17:10;;;;;;;10.90;7.78;;;;;;;14.48;71.33;100620.41;4896116;29;20052;-76
2023/09/24 04:19:36;;;;;;;12.35;7.60;;;;;;;14.46;71.28;100620.50;4894988;29;20052;-76
2023/09/24 04:22:03;;;;;;;8.68;6.85;;;;;;;14.44;71.35;100628.53;4896043;29;20059;-76
2023/09/24 04:24:30;;;;;;;11.20;8.18;;;;;;;14.42;71.43;100638.38;4894849;29;20059;-76
2023/09/24 04:29:24;;;;;;;10.07;6.97;;;;;;;14.39;71.39;100643.00;4932620;29;20059;-79
2023/09/24 04:31:51;;;;;;;11.52;7.60;;;;;;;14.37;71.19;100644.88;4933684;29;20515;-79
2023/09/24 04:34:19;;;;;;;11.00;8.82;;;;;;;14.35;71.35;100642.31;4933234;29;20091;-81
2023/09/24 04:36:46;;;;;;;11.32;8.13;;;;;;;14.32;71.06;100648.66;4933581;29;20070;-80
2023/09/24 04:39:13;;;;;;;10.95;8.50;;;;;;;14.30;71.04;100655.00;4933812;29;20417;-79
2023/09/24 04:41:43;;;;;;;11.85;10.10;;;;;;;14.26;71.17;100650.81;4933763;29;20413;-80
2023/09/24 04:44:09;;;;;;;13.50;9.93;;;;;;;14.24;71.22;100652.72;4933598;29;20134;-79
2023/09/24 04:46:36;;;;;;;13.02;10.68;;;;;;;14.21;71.24;100645.81;4933267;29;20532;-80
2023/09/24 04:49:04;;;;;;;15.00;10.70;;;;;;;14.17;71.43;100654.84;4933669;29;20055;-81
2023/09/24 04:51:34;;;;;;;12.88;9.75;;;;;;;14.14;71.21;100653.25;4933583;29;20054;-80
2023/09/24 04:54:02;;;;;;;11.85;9.27;;;;;;;14.10;71.34;100661.44;4933483;29;20079;-79
2023/09/24 04:56:29;;;;;;;10.10;9.00;;;;;;;14.06;71.42;100660.78;4933043;29;20043;-80
2023/09/24 04:58:56;;;;;;;12.10;9.32;;;;;;;14.02;71.33;100670.66;4933477;29;20062;-80
2023/09/24 05:01:22;;;;;;;13.07;9.32;;;;;;;14.00;71.61;100674.34;4933592;29;20056;-79
2023/09/24 05:03:50;;;;;;;13.85;9.98;;;;;;;13.97;71.60;100683.31;4933196;29;20059;-79
2023/09/24 05:06:18;;;;;;;12.23;8.50;;;;;;;13.93;71.93;100672.06;4933501;29;20052;-80
2023/09/24 05:08:46;;;;;;;12.50;9.73;;;;;;;13.92;71.70;100670.34;4932250;29;20118;-80
2023/09/24 05:11:13;;;;;;;11.40;8.93;;;;;;;13.89;71.87;100662.56;4933035;29;20103;-79
2023/09/24 05:13:40;;;;;;;12.35;9.63;;;;;;;13.88;71.98;100666.19;4933300;29;20497;-80
2023/09/24 05:16:08;;;;;;;12.40;9.43;;;;;;;13.85;71.86;100679.56;4933453;29;20043;-81
2023/09/24 05:18:36;;;;;;;14.13;9.73;;;;;;;13.83;71.80;100676.13;4933513;29;20093;-80
2023/09/24 05:21:03;;;;;;;12.15;9.80;;;;;;;13.79;71.81;100680.75;4932935;29;20071;-80
2023/09/24 05:23:30;;;;;;;13.57;9.88;;;;;;;13.74;71.89;100676.66;4932956;29;20062;-79
2023/09/24 05:25:57;;;;;;;25.17;10.73;;;;;;;13.72;71.95;100675.91;4933817;29;20639;-79
2023/09/24 05:28:23;;;;;;;15.23;9.98;;;;;;;13.69;71.81;100679.56;4933510;29;20047;-81
2023/09/24 05:30:54;;;;;;;14.15;9.68;;;;;;;13.64;72.19;100678.97;4932946;29;20667;-80
2023/09/24 05:33:21;;;;;;;15.07;11.02;;;;;;;13.63;72.11;100680.75;4932980;29;20143;-80
2023/09/24 05:35:52;;;;;;;13.43;10.60;;;;;;;13.60;72.16;100677.44;4933725;29;20107;-80
2023/09/24 05:38:19;;;;;;;15.98;11.25;;;;;;;13.59;72.39;100683.66;4936837;29;20066;-79
2023/09/24 05:40:46;;;;;;;13.77;10.95;;;;;;;13.57;72.58;100689.03;4936114;29;20062;-80
2023/09/24 05:43:13;;;;;;;14.60;10.57;;;;;;;13.55;72.46;100685.63;4936439;29;20151;-79
2023/09/24 05:45:50;;;;;;;15.25;11.68;;;;;;;13.50;72.65;100685.84;4935484;29;20095;-80
2023/09/24 05:48:17;;;;;;;14.10;11.05;;;;;;;13.54;72.65;100691.84;4936414;29;20107;-80
2023/09/24 05:50:45;;;;;;;14.70;10.68;;;;;;;13.52;72.35;100699.88;4936505;29;20091;-80
2023/09/24 05:53:13;;;;;;;14.38;10.43;;;;;;;13.51;72.37;100702.59;4936261;29;20044;-80
2023/09/24 05:55:39;;;;;;;16.83;10.55;;;;;;;13.52;72.52;100713.09;4935931;29;20051;-78
2023/09/24 05:58:06;;;;;;;14.82;11.00;;;;;;;13.50;72.54;100704.38;4935872;29;20561;-78
2023/09/24 06:00:37;;;;;;;11.23;9.10;;;;;;;13.50;72.61;100719.41;4936314;29;20501;-79
2023/09/24 06:03:04;;;;;;;13.13;9.98;;;;;;;13.51;72.65;100727.25;4936241;29;20055;-79
2023/09/24 06:05:31;;;;;;;10.20;8.63;;;;;;;13.50;72.81;100724.69;4935769;29;20055;-78
2023/09/24 06:07:57;;;;;;;12.25;9.30;;;;;;;13.51;72.73;100723.75;4936100;29;20082;-77
2023/09/24 06:10:24;;;;;;;12.77;9.23;;;;;;;13.50;72.66;100722.88;4936143;29;20119;-77
2023/09/24 06:12:52;;;;;;;11.40;9.15;;;;;;;13.51;72.91;100734.34;4934890;29;20056;-79
2023/09/24 06:15:19;;;;;;;12.32;9.32;;;;;;;13.51;72.96;100732.56;4935905;29;20400;-78
2023/09/24 06:17:47;;;;;;;10.32;8.63;;;;;;;13.52;73.03;100736.91;4936032;29;20058;-79
2023/09/24 06:20:15;;;;;;;14.30;9.05;;;;;;;13.52;72.88;100733.38;4935954;29;20073;-78
2023/09/24 06:22:44;;;;;;;12.13;8.50;;;;;;;13.53;73.02;100738.59;4935937;29;20692;-78
2023/09/24 06:25:11;;;;;;;21.23;8.93;;;;;;;13.54;73.06;100740.31;4935607;29;20059;-79
2023/09/24 06:27:40;;;;;;;13.73;9.05;;;;;;;13.54;72.96;100740.31;4935970;29;20047;-78
2023/09/24 06:30:09;;;;;;;12.75;9.10;;;;;;;13.54;72.87;100748.25;4935438;29;20777;-80
2023/09/24 06:32:35;;;;;;;12.48;9.13;;;;;;;13.56;72.71;100745.50;4936026;29;20062;-77
2023/09/24 06:35:03;;;;;;;13.00;9.85;;;;;;;13.57;73.05;100747.22;4935706;29;20055;-79
2023/09/24 06:37:30;;;;;;;13.73;9.32;;;;;;;13.58;72.94;100745.44;4935872;29;20087;-78
2023/09/24 06:39:57;;;;;;;13.18;9.38;;;;;;;13.57;72.85;100747.22;4935265;29;20055;-79
2023/09/24 06:42:24;;;;;;;12.32;9.27;;;;;;;13.58;73.17;100748.94;4934407;29;20143;-78
2023/09/24 06:44:50;;;;;;;12.13;8.95;;;;;;;13.58;73.00;100756.88;4935171;29;20056;-78
2023/09/24 06:47:17;;;;;;;13.93;9.25;;;;;;;13.59;73.30;100763.88;4934959;29;20056;-79
2023/09/24 06:49:43;;;;;;;12.73;8.23;;;;;;;13.60;73.28;100767.38;4935365;29;20082;-78
2023/09/24 06:52:10;;;;;;;10.30;8.13;;;;;;;13.62;73.52;100769.00;4935059;29;20139;-80
2023/09/24 06:54:36;;;;;;;12.38;8.23;;;;;;;13.65;73.64;100782.06;4933692;29;20059;-80
2023/09/24 06:57:03;;;;;;;11.23;8.50;;;;;;;13.67;73.58;100782.84;4935195;29;20058;-80
2023/09/24 06:59:29;;;;;;;13.43;8.90;;;;;;;13.73;73.68;100783.44;4935200;29;22021;-78
2023/09/24 07:01:56;;;;;;;12.80;8.13;;;;;;;13.76;73.72;100775.34;4934779;29;20052;-79
2023/09/24 07:04:22;;;;;;;12.02;8.02;;;;;;;13.80;73.58;100787.47;4933304;29;20083;-77
2023/09/24 07:06:51;;;;;;;12.23;8.48;;;;;;;13.83;73.89;100782.00;4933933;29;20062;-80
2023/09/24 07:09:18;;;;;;;11.95;8.32;;;;;;;13.88;73.70;100781.75;4933478;29;20051;-77
2023/09/24 07:11:44;;;;;;;15.32;8.65;;;;;;;13.91;73.51;100785.09;4929881;29;20496;-77
2023/09/24 07:14:11;;;;;;;12.63;8.90;;;;;;;13.95;73.61;100799.03;4935025;29;20166;-77
2023/09/24 07:16:38;;;;;;;15.48;8.52;;;;;;;13.98;73.41;100793.53;4933651;29;20122;-78
2023/09/24 07:19:04;;;;;;;10.60;8.73;;;;;;;14.01;73.55;100793.38;4934978;29;20051;-77
2023/09/24 07:21:31;;;;;;;11.85;9.18;;;;;;;14.04;73.33;100803.81;4934536;29;20110;-78
2023/09/24 07:24:03;;;;;;;12.10;8.73;;;;;;;14.05;73.54;100802.88;4933404;29;20150;-78
2023/09/24 07:26:30;;;;;;;14.57;9.77;;;;;;;14.08;73.62;100804.47;4934749;29;20087;-78
2023/09/24 07:28:57;;;;;;;18.42;10.38;;;;;;;14.12;73.54;100808.69;4933637;29;20107;-79
2023/09/24 07:31:25;;;;;;;18.95;10.45;;;;;;;14.14;73.51;100817.41;4933906;29;20465;-77
2023/09/24 07:33:59;;;;;;;16.58;11.40;;;;;;;14.15;73.43;100821.75;4933065;29;20050;-78
2023/09/24 07:36:26;;;;;;;19.60;11.15;;;;;;;14.18;73.35;100821.59;4934553;29;20118;-78
2023/09/24 07:38:56;;;;;;;15.95;11.27;;;;;;;14.22;73.50;100824.06;4933453;29;20142;-78
2023/09/24 07:41:22;;;;;;;16.70;11.02;;;;;;;14.23;73.61;100820.44;4934269;29;20096;-79
2023/09/24 07:43:49;;;;;;;17.92;11.27;;;;;;;14.26;73.88;100821.16;4934314;29;20060;-79
2023/09/24 07:46:16;;;;;;;17.13;11.75;;;;;;;14.30;73.95;100827.13;4934530;29;20070;-79
2023/09/24 07:48:47;;;;;;;22.42;12.93;;;;;;;14.35;74.17;100830.38;4933507;29;20409;-77
2023/09/24 07:51:18;;;;;;;21.17;12.63;;;;;;;14.39;74.10;100826.63;4934233;29;20500;-78
2023/09/24 07:53:45;;;;;;;19.60;12.52;;;;;;;14.45;74.14;100828.06;4934017;29;20094;-78
2023/09/24 07:56:13;;;;;;;18.38;12.35;;;;;;;14.52;74.24;100833.88;4934157;29;20051;-79
2023/09/24 07:58:41;;;;;;;18.50;12.27;;;;;;;14.57;74.23;100839.75;4933915;29;20086;-78
2023/09/24 08:01:10;;;;;;;21.63;12.57;;;;;;;14.63;74.09;100838.56;4934422;29;20055;-77
2023/09/24 08:03:38;;;;;;;18.50;11.52;;;;;;;14.69;74.12;100843.53;4933890;29;20051;-79
2023/09/24 08:06:05;;;;;;;18.23;11.80;;;;;;;14.75;73.91;100845.81;4934029;29;20138;-78
2023/09/24 08:08:34;;;;;;;21.73;11.35;;;;;;;14.81;73.91;100848.13;4934217;29;20052;-79
2023/09/24 08:11:17;;;;;;;20.20;11.82;;;;;;;14.90;73.99;100843.25;4934296;29;20145;-79
2023/09/24 08:13:57;;;;;;;17.67;11.82;;;;;;;14.92;73.49;100841.38;4935179;29;20071;-78
2023/09/24 08:16:24;;;;;;;14.73;10.35;;;;;;;15.03;73.80;100835.47;4925426;29;20552;-76
2023/09/24 08:18:50;;;;;;;16.45;11.10;;;;;;;15.09;73.66;100843.91;4930475;29;20090;-77
2023/09/24 08:21:19;;;;;;;18.65;11.32;;;;;;;15.15;73.60;100842.69;4914883;29;20058;-79
2023/09/24 08:23:46;;;;;;;16.35;10.57;;;;;;;15.21;73.27;100842.31;4923147;29;20079;-78
2023/09/24 08:26:13;;;;;;;16.45;10.50;;;;;;;15.27;73.22;100845.53;4933813;29;20047;-78
2023/09/24 08:28:40;;;;;;;17.38;10.13;;;;;;;15.31;73.25;100847.94;4932960;29;20051;-78
2023/09/24 08:31:11;;;;;;;14.27;9.20;;;;;;;15.35;73.20;100853.91;4933812;29;20082;-78
2023/09/24 08:33:38;;;;;;;12.55;8.77;;;;;;;15.43;73.42;100861.41;4933569;29;20047;-79
2023/09/24 08:36:09;;;;;;;16.00;9.13;;;;;;;15.47;72.83;100854.97;4933819;29;20063;-79
2023/09/24 08:38:36;;;;;;;14.80;9.43;;;;;;;15.56;73.40;100854.44;4933694;29;20111;-78
2023/09/24 08:41:10;;;;;;;14.07;9.40;;;;;;;15.59;72.57;100854.22;4933050;29;20058;-80
2023/09/24 08:43:38;;;;;;;12.77;8.52;;;;;;;15.67;73.17;100853.78;4932634;29;20052;-79
2023/09/24 08:46:08;;;;;;;14.95;9.23;;;;;;;15.72;73.15;100851.69;4914863;29;20143;-79
2023/09/24 08:48:35;;;;;;;10.93;7.88;;;;;;;15.80;73.16;100851.22;4932564;29;20103;-79
2023/09/24 08:51:03;;;;;;;13.85;8.38;;;;;;;15.87;73.14;100857.84;4933353;29;20051;-79
2023/09/24 08:53:30;;;;;;;13.95;8.45;;;;;;;15.94;72.82;100855.72;4933341;29;20052;-79
2023/09/24 08:55:56;;;;;;;11.05;7.65;;;;;;;16.00;72.92;100855.31;4933359;29;20556;-81
2023/09/24 08:58:23;;;;;;;11.65;7.20;;;;;;;16.08;73.00;100859.31;4933754;29;20047;-79
2023/09/24 09:00:51;;;;;;;11.75;8.43;;;;;;;16.15;72.98;100852.66;4933484;29;20052;-80
2023/09/24 09:03:19;;;;;;;10.13;7.35;;;;;;;16.22;73.05;100853.13;4933499;29;20048;-82
2023/09/24 09:05:46;;;;;;;13.48;7.45;;;;;;;16.30;72.83;100852.63;4933950;29;20103;-78
2023/09/24 09:08:13;;;;;;;7.55;6.15;;;;;;;16.36;73.02;100853.09;4933523;29;20052;-80
2023/09/24 09:10:39;;;;;;;8.88;6.28;;;;;;;16.45;73.02;100853.47;4933978;29;20130;-80
2023/09/24 09:13:13;;;;;;;9.88;6.65;;;;;;;16.51;71.87;100853.91;4935978;29;20479;-80
2023/09/24 09:15:41;;;;;;;9.10;6.72;;;;;;;16.61;72.39;100853.31;4937204;29;20055;-79
2023/09/24 09:18:21;;;;;;;11.73;5.57;;;;;;;16.66;71.61;100862.69;4937235;29;20048;-79
2023/09/24 09:20:50;;;;;;;12.07;5.57;;;;;;;16.77;72.46;100856.69;4937048;29;20515;-79
2023/09/24 09:23:32;;;;;;;12.23;6.00;;;;;;;16.83;70.43;100854.56;4936007;29;20059;-79
2023/09/24 09:26:01;;;;;;;8.85;5.15;;;;;;;16.95;71.67;100851.09;4937218;29;20056;-79
2023/09/24 09:28:30;;;;;;;8.65;4.63;;;;;;;17.01;71.25;100858.66;4936968;29;20074;-79
2023/09/24 09:30:57;;;;;;;10.30;5.10;;;;;;;17.09;71.29;100849.34;4935761;29;20047;-78
2023/09/24 09:33:27;;;;;;;9.50;4.45;;;;;;;17.15;71.17;100852.44;4935373;29;20083;-79
2023/09/24 09:35:55;;;;;;;8.95;4.50;;;;;;;17.24;71.28;100847.47;4937056;29;20056;-79
2023/09/24 09:38:21;;;;;;;8.52;4.10;;;;;;;17.31;70.60;100849.59;4935657;29;20556;-78
2023/09/24 09:40:54;;;;;;;10.13;4.78;;;;;;;17.36;68.77;100849.28;4935588;29;20556;-78
2023/09/24 09:43:23;;;;;;;8.25;4.60;;;;;;;17.44;69.57;100849.63;4936542;29;20080;-78
2023/09/24 09:45:54;;;;;;;7.65;4.07;;;;;;;17.51;69.26;100849.19;4936648;29;20087;-78
2023/09/24 09:48:27;;;;;;;7.40;4.15;;;;;;;17.55;67.77;100846.22;4935592;29;20052;-78
2023/09/24 09:50:59;;;;;;;10.13;4.18;;;;;;;17.62;68.63;100848.44;4936765;29;20062;-78
2023/09/24 09:53:30;;;;;;;7.03;3.87;;;;;;;17.70;68.37;100836.31;4936507;29;20054;-78
2023/09/24 09:56:00;;;;;;;7.90;3.33;;;;;;;17.81;68.74;100835.56;4935477;29;20047;-77
2023/09/24 09:58:29;;;;;;;5.47;3.00;;;;;;;17.90;68.94;100833.22;4936352;29;20512;-78
2023/09/24 10:00:56;;;;;;;8.15;3.17;;;;;;;18.01;68.67;100835.09;4936508;29;20070;-79
2023/09/24 10:03:23;;;;;;;5.25;3.05;;;;;;;18.12;67.92;100823.72;4935933;29;20512;-77
2023/09/24 10:05:50;;;;;;;4.63;2.40;;;;;;;18.23;68.07;100823.78;4936277;29;20126;-80
2023/09/24 10:08:39;;;;;;;7.88;2.90;;;;;;;18.29;64.25;100818.00;4936227;29;20048;-78
2023/09/24 10:11:07;;;;;;;5.68;2.55;;;;;;;18.46;66.48;100823.91;4936335;29;20091;-78
2023/09/24 10:13:44;;;;;;;6.57;2.80;;;;;;;18.54;64.31;100816.19;4936038;29;20066;-78
2023/09/24 10:16:26;;;;;;;5.32;2.70;;;;;;;18.65;65.02;100806.56;4936060;29;20048;-78
2023/09/24 10:18:54;;;;;;;5.07;2.80;;;;;;;18.80;67.20;100800.06;4936058;29;20102;-79
2023/09/24 10:21:38;;;;;;;6.20;2.45;;;;;;;18.91;64.07;100806.41;4935919;29;20469;-78
2023/09/24 10:24:13;;;;;;;6.45;2.65;;;;;;;19.05;64.22;100800.91;4935124;29;20059;-79
2023/09/24 10:26:47;;;;;;;9.00;2.80;;;;;;;19.21;65.32;100808.59;4935847;29;20083;-78
2023/09/24 10:29:15;;;;;;;8.48;2.45;;;;;;;19.33;65.42;100804.09;5086866;23;20043;-76
2023/09/24 10:32:07;;;;;;;6.00;2.17;;;;;;;19.45;63.18;100804.13;4953578;28;20138;-76
2023/09/24 10:34:55;;;;;;;2.67;2.00;;;;;;;19.61;62.67;100803.78;4945854;29;20564;-76
2023/09/24 10:37:25;;;;;;;5.07;1.95;;;;;;;19.75;63.12;100795.53;4935713;29;20058;-75
2023/09/24 10:40:19;;;;;;;4.30;2.28;;;;;;;19.88;61.57;100797.19;4951157;29;20199;-76
2023/09/24 10:43:09;;;;;;;2.97;1.60;;;;;;;19.99;61.44;100786.53;4953895;28;20051;-76
2023/09/24 10:45:36;;;;;;;3.55;2.03;;;;;;;20.15;63.06;100786.16;4954625;28;20055;-78
2023/09/24 10:48:03;;;;;;;4.55;1.77;;;;;;;20.26;63.03;100793.28;4954763;28;20063;-74
2023/09/24 10:50:29;;;;;;;4.40;1.80;;;;;;;20.37;62.87;100786.22;4954845;28;20063;-76
2023/09/24 10:53:02;;;;;;;6.25;1.60;;;;;;;20.48;60.83;100791.53;4954112;29;20102;-76
2023/09/24 10:55:33;;;;;;;4.78;1.60;;;;;;;20.63;62.61;100799.28;4954464;28;20106;-78
2023/09/24 10:58:12;;;;;;;4.88;1.67;;;;;;;20.75;60.37;100792.03;4954944;28;20051;-72
2023/09/24 11:00:41;;;;;;;7.32;1.50;;;;;;;20.95;62.60;100793.91;4954494;28;20055;-75
2023/09/24 11:03:10;;;;;;;4.30;1.50;;;;;;;21.15;61.35;100788.69;4954032;28;20055;-74
2023/09/24 11:05:40;;;;;;;5.68;1.42;;;;;;;21.41;61.28;100784.75;4953825;29;20043;-76
2023/09/24 11:08:08;;;;;;;3.70;1.50;;;;;;;21.79;64.13;100782.38;4954238;29;20522;-75
2023/09/24 11:10:35;;;;;;;3.33;1.80;;;;;;;22.24;65.35;100781.91;4954363;28;20102;-74
2023/09/24 11:13:03;;;;;;;3.20;1.42;;;;;;;22.83;64.20;100777.59;4953887;28;20050;-75
2023/09/24 11:15:32;;;;;;;7.28;1.75;;;;;;;23.54;64.09;100780.81;4953630;28;20139;-75
2023/09/24 11:17:59;;;;;;;3.40;1.73;;;;;;;24.30;64.25;100783.41;4953977;28;20051;-80
2023/09/24 11:20:30;;;;;;;4.45;1.50;;;;;;;25.09;62.77;100778.19;4954205;28;20109;-77
2023/09/24 11:23:08;;;;;;;2.50;1.10;;;;;;;25.92;58.29;100782.34;4953741;28;20047;-74
2023/09/24 11:25:35;;;;;;;4.82;1.38;;;;;;;26.70;59.48;100790.25;4950991;29;20134;-75
2023/09/24 11:28:03;;;;;;;2.58;1.33;;;;;;;27.39;57.29;100787.13;4953871;28;20146;-76